Time;durP1;ratioP1;P1;durP2;ratioP2;P2;SDS_P1;SDS_P2;PMS_P1;PMS_P2;Temp;Humidity;BMP_temperature;BMP_pressure;BME280_temperature;BME280_humidity;BME280_pressure;Samples;Min_cycle;Max_cycle;Signal;HPM_P1;HPM_P2
2023/05/18 00:00:26;;;;;;;0.70;0.70;;;5.20;99.90;;;;;;5049309;28;20671;-85
2023/05/18 00:02:51;;;;;;;0.77;0.77;;;5.20;99.90;;;;;;5052347;28;20563;-84
2023/05/18 00:05:17;;;;;;;0.70;0.70;;;5.30;99.90;;;;;;5052618;28;20203;-84
2023/05/18 00:07:44;;;;;;;0.70;0.70;;;5.30;99.90;;;;;;5052390;28;20208;-85
2023/05/18 00:10:10;;;;;;;0.70;0.70;;;5.20;99.90;;;;;;5050726;28;20197;-85
2023/05/18 00:12:36;;;;;;;0.80;0.80;;;5.00;99.90;;;;;;5035780;28;20690;-85
2023/05/18 00:15:02;;;;;;;0.73;0.73;;;5.00;99.90;;;;;;5035724;28;20236;-85
2023/05/18 00:17:33;;;;;;;0.80;0.80;;;5.00;99.90;;;;;;5035575;28;20292;-84
2023/05/18 00:19:59;;;;;;;0.80;0.80;;;5.10;99.90;;;;;;5035738;28;20204;-85
2023/05/18 00:22:25;;;;;;;0.70;0.70;;;4.90;99.90;;;;;;5035452;28;20288;-84
2023/05/18 00:24:52;;;;;;;0.70;0.70;;;4.80;99.90;;;;;;5035165;28;20717;-84
2023/05/18 00:27:17;;;;;;;0.70;0.70;;;4.70;99.90;;;;;;5035206;28;20292;-84
2023/05/18 00:29:48;;;;;;;0.70;0.70;;;4.60;99.90;;;;;;5035427;28;20281;-83
2023/05/18 00:32:14;;;;;;;0.73;0.73;;;4.70;99.90;;;;;;5035422;28;20725;-83
2023/05/18 00:34:40;;;;;;;0.70;0.70;;;4.60;99.90;;;;;;5035074;28;20280;-84
2023/05/18 00:37:06;;;;;;;0.68;0.68;;;4.70;99.90;;;;;;5035104;28;20281;-83
2023/05/18 00:39:35;;;;;;;0.68;0.68;;;4.60;99.90;;;;;;5035272;28;20208;-83
2023/05/18 00:42:01;;;;;;;0.70;0.70;;;4.60;99.90;;;;;;5035286;28;20574;-84
2023/05/18 00:44:27;;;;;;;0.80;0.80;;;4.50;99.90;;;;;;5034779;28;20712;-84
2023/05/18 00:46:52;;;;;;;0.73;0.73;;;4.50;99.90;;;;;;5034092;28;20251;-84
2023/05/18 00:49:19;;;;;;;0.80;0.80;;;4.40;99.90;;;;;;5035067;28;20189;-83
2023/05/18 00:51:45;;;;;;;0.70;0.70;;;4.30;99.90;;;;;;5034855;28;20209;-84
2023/05/18 00:54:11;;;;;;;0.80;0.80;;;4.20;99.90;;;;;;5035079;28;20254;-84
2023/05/18 00:56:40;;;;;;;0.70;0.70;;;4.00;99.90;;;;;;5034852;28;20225;-84
2023/05/18 00:59:09;;;;;;;0.75;0.75;;;3.80;99.90;;;;;;5034908;28;20568;-85
2023/05/18 01:01:35;;;;;;;0.70;0.70;;;3.60;99.90;;;;;;5035961;28;20669;-92
2023/05/18 01:04:03;;;;;;;0.70;0.70;;;3.40;99.90;;;;;;5047507;23;20236;-73
2023/05/18 01:06:34;;;;;;;0.80;0.80;;;3.30;99.90;;;;;;5072669;28;20558;-73
2023/05/18 01:09:02;;;;;;;0.80;0.80;;;3.20;99.90;;;;;;5072786;28;20223;-73
2023/05/18 01:11:53;;;;;;;0.80;0.80;;;3.00;99.90;;;;;;5072829;28;20192;-72
2023/05/18 01:14:30;;;;;;;0.80;0.80;;;2.90;99.90;;;;;;5072456;28;20235;-72
2023/05/18 01:17:05;;;;;;;0.70;0.70;;;2.70;99.90;;;;;;5054704;28;20200;-73
2023/05/18 01:19:50;;;;;;;0.80;0.80;;;2.60;99.90;;;;;;5072377;28;20533;-74
2023/05/18 01:22:55;;;;;;;0.90;0.90;;;2.50;99.90;;;;;;5073584;28;20247;-73
2023/05/18 01:25:39;;;;;;;0.70;0.70;;;2.40;99.90;;;;;;5072718;28;20188;-73
2023/05/18 01:28:12;;;;;;;0.80;0.80;;;2.40;99.90;;;;;;5055107;28;20201;-73
2023/05/18 01:30:40;;;;;;;0.70;0.70;;;2.30;99.90;;;;;;5072718;28;20260;-73
2023/05/18 01:33:10;;;;;;;0.70;0.70;;;2.30;99.90;;;;;;5054791;28;20292;-73
2023/05/18 01:35:36;;;;;;;0.70;0.70;;;2.30;99.90;;;;;;5072725;28;20189;-73
2023/05/18 01:38:03;;;;;;;0.80;0.80;;;2.30;99.90;;;;;;5072334;28;20687;-73
2023/05/18 01:40:35;;;;;;;0.70;0.70;;;2.20;99.90;;;;;;5072611;28;20185;-73
2023/05/18 01:43:08;;;;;;;0.80;0.80;;;2.20;99.90;;;;;;5072483;28;20717;-73
2023/05/18 01:45:38;;;;;;;0.80;0.80;;;2.10;99.90;;;;;;5072280;28;20557;-73
2023/05/18 01:48:09;;;;;;;0.88;0.88;;;2.00;99.90;;;;;;5072178;28;20184;-73
2023/05/18 01:50:40;;;;;;;0.70;0.70;;;2.00;99.90;;;;;;5071967;28;20666;-73
2023/05/18 01:53:23;;;;;;;0.60;0.60;;;1.90;99.90;;;;;;5053336;28;20209;-73
2023/05/18 01:55:52;;;;;;;0.70;0.70;;;1.90;99.90;;;;;;5052029;28;20281;-73
2023/05/18 01:58:20;;;;;;;0.70;0.70;;;1.80;99.90;;;;;;5055343;28;20535;-72
2023/05/18 02:00:46;;;;;;;0.70;0.70;;;1.70;99.90;;;;;;5062264;28;20757;-73
2023/05/18 02:03:13;;;;;;;0.70;0.70;;;1.70;99.90;;;;;;5076301;28;20240;-73
2023/05/18 02:05:39;;;;;;;0.70;0.70;;;1.70;99.90;;;;;;5076299;28;20235;-73
2023/05/18 02:08:05;;;;;;;0.73;0.73;;;1.60;99.90;;;;;;5076358;28;20193;-73
2023/05/18 02:10:31;;;;;;;0.80;0.80;;;1.60;99.90;;;;;;5076327;28;20686;-73
2023/05/18 02:12:56;;;;;;;0.80;0.80;;;1.50;99.90;;;;;;5058587;28;20197;-73
2023/05/18 02:15:22;;;;;;;0.70;0.70;;;1.40;99.90;;;;;;5076273;28;20197;-73
2023/05/18 02:17:48;;;;;;;0.80;0.80;;;1.40;99.90;;;;;;5076504;28;20659;-73
2023/05/18 02:20:17;;;;;;;0.70;0.70;;;1.40;99.90;;;;;;5076346;28;20228;-73
2023/05/18 02:22:43;;;;;;;0.80;0.80;;;1.30;99.90;;;;;;5075235;28;20682;-72
2023/05/18 02:25:09;;;;;;;0.75;0.75;;;1.20;99.90;;;;;;5076317;28;20557;-73
2023/05/18 02:27:35;;;;;;;0.80;0.80;;;1.20;99.90;;;;;;5075890;28;20199;-73
2023/05/18 02:30:04;;;;;;;0.77;0.77;;;1.10;99.90;;;;;;5076116;28;20614;-73
2023/05/18 02:32:37;;;;;;;0.70;0.70;;;1.00;99.90;;;;;;5075949;28;20196;-72
2023/05/18 02:35:07;;;;;;;0.70;0.70;;;1.00;99.90;;;;;;5076105;28;20275;-72
2023/05/18 02:37:42;;;;;;;0.80;0.80;;;0.90;99.90;;;;;;5075793;28;20189;-72
2023/05/18 02:40:13;;;;;;;0.80;0.80;;;0.90;99.90;;;;;;5056036;28;20193;-72
2023/05/18 02:42:39;;;;;;;0.70;0.70;;;0.90;99.90;;;;;;5055395;28;20331;-73
2023/05/18 02:45:05;;;;;;;0.70;0.70;;;0.80;99.90;;;;;;5052627;28;20669;-72
2023/05/18 02:47:31;;;;;;;0.80;0.80;;;0.80;99.90;;;;;;5071578;28;20189;-72
2023/05/18 02:49:56;;;;;;;0.70;0.70;;;0.90;99.90;;;;;;5055900;28;20190;-72
2023/05/18 02:52:22;;;;;;;0.80;0.80;;;0.90;99.90;;;;;;5055637;28;20189;-72
2023/05/18 02:54:48;;;;;;;0.70;0.70;;;0.90;99.90;;;;;;5055731;28;20243;-72
2023/05/18 02:57:14;;;;;;;0.90;0.90;;;0.90;99.90;;;;;;5055601;28;20285;-72
2023/05/18 02:59:40;;;;;;;0.80;0.80;;;0.90;99.90;;;;;;5066729;28;20200;-72
2023/05/18 03:02:06;;;;;;;0.88;0.88;;;1.00;99.90;;;;;;5065832;28;20683;-72
2023/05/18 03:04:32;;;;;;;0.80;0.80;;;1.00;99.90;;;;;;5057641;28;20230;-72
2023/05/18 03:07:01;;;;;;;0.80;0.80;;;1.00;99.90;;;;;;5055464;28;20193;-72
2023/05/18 03:09:27;;;;;;;0.70;0.70;;;1.00;99.90;;;;;;5054062;28;20214;-72
2023/05/18 03:11:53;;;;;;;0.85;0.85;;;1.10;99.90;;;;;;5055473;28;20285;-72
2023/05/18 03:14:19;;;;;;;0.80;0.80;;;1.10;99.90;;;;;;5055231;28;20711;-72
2023/05/18 03:16:45;;;;;;;0.82;0.82;;;1.20;99.90;;;;;;5055264;28;20204;-72
2023/05/18 03:19:12;;;;;;;0.88;0.88;;;1.30;99.90;;;;;;5055091;28;20225;-72
2023/05/18 03:21:38;;;;;;;0.80;0.80;;;1.30;99.90;;;;;;5055013;28;20277;-74
2023/05/18 03:24:05;;;;;;;0.80;0.80;;;1.40;99.90;;;;;;5036425;28;20321;-72
2023/05/18 03:26:30;;;;;;;0.80;0.80;;;1.50;99.90;;;;;;5037073;28;20194;-73
2023/05/18 03:28:57;;;;;;;0.70;0.70;;;1.50;99.90;;;;;;5055073;28;20216;-72
2023/05/18 03:31:24;;;;;;;0.80;0.80;;;1.60;99.90;;;;;;5036869;28;20601;-72
2023/05/18 03:33:50;;;;;;;0.75;0.75;;;1.70;99.90;;;;;;5055002;28;20198;-72
2023/05/18 03:36:15;;;;;;;0.80;0.80;;;1.70;99.90;;;;;;5054830;28;20193;-72
2023/05/18 03:38:44;;;;;;;1.60;1.50;;;1.80;99.90;;;;;;5062867;28;20611;-72
2023/05/18 03:41:10;;;;;;;0.77;0.77;;;1.80;99.90;;;;;;5074801;28;20192;-72
2023/05/18 03:43:36;;;;;;;0.80;0.80;;;1.80;99.90;;;;;;5053632;28;20209;-72
2023/05/18 03:46:02;;;;;;;0.70;0.70;;;1.90;99.90;;;;;;5054915;28;20537;-72
2023/05/18 03:48:28;;;;;;;0.80;0.80;;;2.00;99.90;;;;;;5054231;28;20243;-73
2023/05/18 03:50:55;;;;;;;0.80;0.80;;;2.00;99.90;;;;;;5054699;28;20661;-72
2023/05/18 03:53:20;;;;;;;0.80;0.80;;;2.10;99.90;;;;;;5054473;28;20252;-72
2023/05/18 03:55:50;;;;;;;0.80;0.80;;;2.10;99.90;;;;;;5064632;28;20201;-73
2023/05/18 03:58:16;;;;;;;0.85;0.85;;;2.30;99.90;;;;;;5074312;28;20193;-73
2023/05/18 04:00:42;;;;;;;0.73;0.73;;;2.30;99.90;;;;;;5074324;28;20246;-72
2023/05/18 04:03:13;;;;;;;0.70;0.70;;;2.40;99.90;;;;;;5073555;28;20616;-74
2023/05/18 04:05:43;;;;;;;0.70;0.70;;;2.50;99.90;;;;;;5073322;28;20274;-72
2023/05/18 04:08:13;;;;;;;0.70;0.70;;;2.60;99.90;;;;;;5074309;28;20185;-72
2023/05/18 04:10:41;;;;;;;0.70;0.70;;;2.60;99.90;;;;;;5056318;28;20196;-72
2023/05/18 04:13:06;;;;;;;0.77;0.77;;;2.80;99.90;;;;;;5074162;28;20189;-72
2023/05/18 04:15:32;;;;;;;0.70;0.70;;;2.80;99.90;;;;;;5073892;28;20762;-72
2023/05/18 04:17:58;;;;;;;0.70;0.70;;;2.90;99.90;;;;;;5056194;28;20717;-72
2023/05/18 04:20:27;;;;;;;0.80;0.80;;;3.00;99.90;;;;;;5073785;28;20192;-72
2023/05/18 04:22:53;;;;;;;0.80;0.80;;;3.20;99.90;;;;;;5073985;28;20205;-73
2023/05/18 04:25:19;;;;;;;0.73;0.73;;;3.30;99.90;;;;;;5073822;28;20710;-70
2023/05/18 04:27:50;;;;;;;0.73;0.73;;;3.40;99.90;;;;;;5074203;28;20581;-72
2023/05/18 04:30:17;;;;;;;0.70;0.70;;;3.60;99.90;;;;;;5073846;28;20185;-72
2023/05/18 04:32:45;;;;;;;0.80;0.80;;;3.80;99.90;;;;;;5055825;28;20201;-72
2023/05/18 04:35:11;;;;;;;0.70;0.70;;;4.00;99.90;;;;;;5073638;28;20657;-72
2023/05/18 04:37:40;;;;;;;0.80;0.80;;;4.20;99.90;;;;;;5073480;28;20192;-72
2023/05/18 04:40:07;;;;;;;0.80;0.80;;;4.40;99.90;;;;;;5073495;28;20580;-73
2023/05/18 04:42:34;;;;;;;0.80;0.80;;;4.60;99.90;;;;;;5073486;28;20251;-72
2023/05/18 04:45:00;;;;;;;0.80;0.80;;;4.70;99.90;;;;;;5073495;28;20189;-73
2023/05/18 04:47:26;;;;;;;0.80;0.80;;;4.90;99.90;;;;;;5073342;28;20262;-72
2023/05/18 04:49:51;;;;;;;0.80;0.80;;;5.00;99.90;;;;;;5073037;28;20271;-72
2023/05/18 04:52:21;;;;;;;0.70;0.70;;;5.10;99.90;;;;;;5073613;28;20189;-72
2023/05/18 04:54:47;;;;;;;0.80;0.80;;;5.20;99.90;;;;;;5073161;28;20196;-72
2023/05/18 04:57:13;;;;;;;0.77;0.77;;;5.30;99.90;;;;;;5073378;28;20229;-72
2023/05/18 04:59:40;;;;;;;0.70;0.70;;;5.40;99.90;;;;;;5073436;28;20253;-72
2023/05/18 05:02:06;;;;;;;0.70;0.70;;;5.60;99.90;;;;;;5073123;28;20199;-72
2023/05/18 05:04:32;;;;;;;0.70;0.70;;;5.70;99.90;;;;;;5072592;28;20283;-73
2023/05/18 05:06:58;;;;;;;0.70;0.70;;;5.90;99.90;;;;;;5073079;28;20675;-73
2023/05/18 05:09:23;;;;;;;0.70;0.70;;;6.10;99.90;;;;;;5072478;28;20221;-72
2023/05/18 05:11:49;;;;;;;0.70;0.70;;;6.30;99.90;;;;;;5072852;28;20192;-72
2023/05/18 05:14:15;;;;;;;0.70;0.70;;;6.60;99.90;;;;;;5073282;28;20188;-75
2023/05/18 05:16:41;;;;;;;0.70;0.70;;;6.80;99.90;;;;;;5073149;28;20193;-72
2023/05/18 05:19:07;;;;;;;0.70;0.70;;;7.10;99.90;;;;;;5055174;28;20197;-73
2023/05/18 05:21:32;;;;;;;0.70;0.70;;;7.30;99.90;;;;;;5054925;28;20214;-72
2023/05/18 05:24:00;;;;;;;0.60;0.60;;;7.40;99.90;;;;;;5054944;28;20208;-73
2023/05/18 05:26:26;;;;;;;0.70;0.70;;;7.60;99.90;;;;;;5073054;28;20678;-72
2023/05/18 05:28:51;;;;;;;0.60;0.60;;;7.70;99.90;;;;;;5072643;28;20193;-73
2023/05/18 05:31:17;;;;;;;0.70;0.70;;;7.80;99.90;;;;;;5072759;28;20237;-72
2023/05/18 05:33:44;;;;;;;0.68;0.68;;;8.00;99.90;;;;;;5072480;28;20237;-73
2023/05/18 05:36:10;;;;;;;0.70;0.70;;;8.20;99.90;;;;;;5072880;28;20197;-73
2023/05/18 05:38:36;;;;;;;0.70;0.70;;;8.20;99.90;;;;;;5072787;28;20313;-73
2023/05/18 05:41:02;;;;;;;17.83;1.60;;;8.30;99.90;;;;;;5072837;28;20263;-73
2023/05/18 05:43:27;;;;;;;0.60;0.60;;;8.40;99.90;;;;;;5072382;28;20211;-72
2023/05/18 05:45:53;;;;;;;0.70;0.70;;;8.50;99.90;;;;;;5072894;28;20655;-73
2023/05/18 05:48:19;;;;;;;0.70;0.70;;;8.40;99.90;;;;;;5072666;28;20566;-73
2023/05/18 05:50:45;;;;;;;0.70;0.70;;;8.50;99.90;;;;;;5072817;28;20193;-73
2023/05/18 05:53:11;;;;;;;0.70;0.70;;;8.60;99.90;;;;;;5052830;28;20597;-73
2023/05/18 05:55:40;;;;;;;0.70;0.70;;;8.80;99.90;;;;;;5052565;28;20197;-73
2023/05/18 05:58:06;;;;;;;0.60;0.60;;;9.00;99.90;;;;;;5053075;28;20197;-73
2023/05/18 06:00:32;;;;;;;0.63;0.63;;;9.20;99.90;;;;;;5052294;28;20248;-73
2023/05/18 06:02:58;;;;;;;0.60;0.60;;;9.40;99.90;;;;;;5034106;28;20585;-76
2023/05/18 06:05:24;;;;;;;0.70;0.70;;;9.50;99.90;;;;;;5052100;28;20251;-73
2023/05/18 06:07:50;;;;;;;0.70;0.70;;;9.80;99.90;;;;;;5034098;28;20741;-73
2023/05/18 06:10:16;;;;;;;0.88;0.88;;;9.70;99.90;;;;;;5051983;28;20281;-73
2023/05/18 06:12:42;;;;;;;0.60;0.60;;;9.80;99.90;;;;;;5034484;28;20197;-73
2023/05/18 06:15:08;;;;;;;0.60;0.60;;;10.00;99.90;;;;;;5052481;28;20236;-73
2023/05/18 06:17:34;;;;;;;0.60;0.60;;;10.00;99.90;;;;;;5052369;28;20199;-73
2023/05/18 06:20:00;;;;;;;0.60;0.60;;;10.00;99.90;;;;;;5052588;28;20198;-73
2023/05/18 06:22:25;;;;;;;0.60;0.60;;;9.70;99.90;;;;;;5052128;28;20404;-73
2023/05/18 06:24:51;;;;;;;0.60;0.60;;;9.80;99.90;;;;;;5034550;28;20201;-73
2023/05/18 06:27:18;;;;;;;0.60;0.60;;;10.10;99.90;;;;;;5059167;28;20200;-72
2023/05/18 06:29:44;;;;;;;0.60;0.60;;;10.50;99.90;;;;;;5054247;28;20674;-73
2023/05/18 06:32:11;;;;;;;0.52;0.52;;;10.50;99.90;;;;;;5072314;28;20189;-73
2023/05/18 06:34:37;;;;;;;0.50;0.50;;;10.60;99.90;;;;;;5072187;28;20215;-73
2023/05/18 06:37:05;;;;;;;0.60;0.60;;;10.90;99.90;;;;;;5072359;28;20193;-72
2023/05/18 06:39:31;;;;;;;0.50;0.50;;;11.00;99.90;;;;;;5072230;28;20275;-73
2023/05/18 06:41:57;;;;;;;0.50;0.50;;;11.00;99.90;;;;;;5072297;28;20241;-74
2023/05/18 06:44:22;;;;;;;0.60;0.60;;;11.20;99.90;;;;;;5074763;28;20714;-73
2023/05/18 06:46:48;;;;;;;0.50;0.50;;;11.20;99.80;;;;;;5076058;28;20185;-74
2023/05/18 06:49:14;;;;;;;0.50;0.50;;;11.40;98.90;;;;;;5075172;28;20280;-74
2023/05/18 06:51:41;;;;;;;0.50;0.50;;;11.50;99.90;;;;;;5075684;28;21581;-73
2023/05/18 06:54:07;;;;;;;0.60;0.60;;;11.50;99.00;;;;;;5076070;28;20188;-74
2023/05/18 06:56:33;;;;;;;0.50;0.50;;;11.90;99.90;;;;;;5075634;28;20563;-72
2023/05/18 06:58:59;;;;;;;0.50;0.50;;;12.10;99.40;;;;;;5075779;28;20231;-74
2023/05/18 07:01:25;;;;;;;0.50;0.50;;;12.20;96.90;;;;;;5075321;28;20193;-74
2023/05/18 07:03:50;;;;;;;0.50;0.50;;;12.20;97.40;;;;;;5075195;28;20259;-74
2023/05/18 07:06:16;;;;;;;0.50;0.50;;;12.00;97.20;;;;;;5075283;28;20637;-74
2023/05/18 07:08:43;;;;;;;0.50;0.50;;;11.80;96.90;;;;;;5075260;28;20193;-74
2023/05/18 07:11:09;;;;;;;0.50;0.50;;;11.70;96.30;;;;;;5075308;28;20627;-72
2023/05/18 07:13:37;;;;;;;0.40;0.40;;;12.10;96.20;;;;;;5075202;28;20197;-74
2023/05/18 07:16:03;;;;;;;0.50;0.50;;;12.10;96.50;;;;;;5075619;28;20200;-73
2023/05/18 07:18:29;;;;;;;0.50;0.50;;;12.50;96.00;;;;;;5057228;28;20201;-72
2023/05/18 07:20:54;;;;;;;0.50;0.50;;;12.70;95.30;;;;;;5075690;28;20379;-72
2023/05/18 07:23:21;;;;;;;0.50;0.50;;;12.70;96.70;;;;;;5074873;28;20197;-72
2023/05/18 07:25:47;;;;;;;0.30;0.30;;;12.80;96.80;;;;;;5075308;28;20189;-73
2023/05/18 07:28:13;;;;;;;0.50;0.50;;;13.00;95.40;;;;;;5074500;28;20193;-75
2023/05/18 07:30:39;;;;;;;0.50;0.50;;;13.20;95.40;;;;;;5074778;28;20205;-75
2023/05/18 07:33:05;;;;;;;0.50;0.50;;;13.30;95.00;;;;;;5075060;28;20196;-75
2023/05/18 07:35:31;;;;;;;0.50;0.50;;;13.20;94.50;;;;;;5074826;28;20196;-74
2023/05/18 07:37:57;;;;;;;0.50;0.50;;;13.10;93.50;;;;;;5075007;28;20193;-75
2023/05/18 07:40:22;;;;;;;0.40;0.40;;;13.30;94.90;;;;;;5056494;28;20208;-76
2023/05/18 07:42:48;;;;;;;0.43;0.43;;;13.20;93.90;;;;;;5074800;28;20225;-74
2023/05/18 07:45:14;;;;;;;0.45;0.45;;;13.40;95.00;;;;;;5074363;28;20212;-75
2023/05/18 07:47:39;;;;;;;0.50;0.50;;;13.70;92.40;;;;;;5074540;28;20264;-74
2023/05/18 07:50:06;;;;;;;0.40;0.40;;;13.90;94.70;;;;;;5074656;28;20192;-74
2023/05/18 07:52:32;;;;;;;0.40;0.40;;;14.40;94.00;;;;;;5074459;28;20560;-74
2023/05/18 07:54:57;;;;;;;0.40;0.40;;;14.60;92.20;;;;;;5056257;28;20196;-74
2023/05/18 07:57:23;;;;;;;0.40;0.40;;;14.60;91.50;;;;;;5074449;28;20193;-74
2023/05/18 07:59:51;;;;;;;0.40;0.40;;;14.60;90.60;;;;;;5074922;28;20256;-74
2023/05/18 08:02:18;;;;;;;0.40;0.40;;;14.80;91.80;;;;;;5074340;28;20749;-75
2023/05/18 08:04:47;;;;;;;0.43;0.43;;;14.90;90.00;;;;;;5074146;28;20232;-77
2023/05/18 08:07:13;;;;;;;0.40;0.40;;;14.80;88.10;;;;;;5073549;28;20197;-75
2023/05/18 08:09:39;;;;;;;0.30;0.30;;;14.40;90.70;;;;;;5074213;28;20215;-74
2023/05/18 08:12:06;;;;;;;0.40;0.40;;;14.80;92.40;;;;;;5074645;28;20204;-75
2023/05/18 08:14:32;;;;;;;0.40;0.40;;;15.20;90.40;;;;;;5073538;28;20197;-74
2023/05/18 08:16:57;;;;;;;0.35;0.35;;;15.30;87.40;;;;;;5074142;28;20197;-75
2023/05/18 08:19:25;;;;;;;0.40;0.40;;;15.60;88.70;;;;;;5055863;28;20231;-76
2023/05/18 08:21:51;;;;;;;0.40;0.40;;;15.40;86.10;;;;;;5056141;28;20196;-77
2023/05/18 08:24:16;;;;;;;0.32;0.32;;;14.80;85.10;;;;;;5073937;28;20295;-76
2023/05/18 08:26:42;;;;;;;0.40;0.40;;;14.90;84.80;;;;;;5055783;28;20200;-75
2023/05/18 08:29:10;;;;;;;0.40;0.40;;;14.70;84.50;;;;;;5056011;28;20663;-75
2023/05/18 08:31:37;;;;;;;0.30;0.30;;;14.70;88.60;;;;;;5073756;28;20200;-75
2023/05/18 08:34:04;;;;;;;0.40;0.40;;;15.00;90.90;;;;;;5073947;28;20204;-75
2023/05/18 08:36:34;;;;;;;0.40;0.40;;;15.30;89.60;;;;;;5073421;28;20189;-76
2023/05/18 08:39:01;;;;;;;2.83;0.77;;;15.50;86.50;;;;;;5073835;28;20272;-75
2023/05/18 08:41:33;;;;;;;0.30;0.30;;;16.10;90.10;;;;;;5055490;28;20197;-75
2023/05/18 08:44:24;;;;;;;0.30;0.30;;;16.30;85.00;;;;;;5073236;28;20211;-76
2023/05/18 08:46:51;;;;;;;0.30;0.30;;;16.40;86.80;;;;;;5055605;28;20188;-77
2023/05/18 08:49:20;;;;;;;0.30;0.30;;;16.30;82.50;;;;;;5073335;28;20554;-76
2023/05/18 08:51:53;;;;;;;0.30;0.30;;;16.60;86.80;;;;;;5073673;28;20211;-76
2023/05/18 08:54:20;;;;;;;0.40;0.40;;;16.80;82.50;;;;;;5073073;28;20197;-74
2023/05/18 08:56:47;;;;;;;0.30;0.30;;;16.60;84.20;;;;;;5073487;28;20207;-76
2023/05/18 08:59:23;;;;;;;0.30;0.30;;;16.60;78.40;;;;;;5073336;28;20203;-76
2023/05/18 09:01:50;;;;;;;0.30;0.30;;;16.30;83.90;;;;;;5073328;28;20184;-76
2023/05/18 09:04:18;;;;;;;0.30;0.30;;;16.20;86.10;;;;;;5072381;28;20231;-76
2023/05/18 09:06:46;;;;;;;0.40;0.40;;;16.40;85.10;;;;;;5054398;28;20197;-76
2023/05/18 09:09:13;;;;;;;0.40;0.40;;;16.80;85.40;;;;;;5073241;28;20678;-76
2023/05/18 09:11:39;;;;;;;0.30;0.30;;;16.70;80.60;;;;;;5055017;28;20544;-76
2023/05/18 09:14:05;;;;;;;0.30;0.30;;;16.50;82.10;;;;;;5073191;28;20219;-76
2023/05/18 09:16:32;;;;;;;0.30;0.30;;;16.60;82.20;;;;;;5072837;28;20201;-76
2023/05/18 09:18:58;;;;;;;0.40;0.40;;;17.20;78.40;;;;;;5073262;28;20193;-77
2023/05/18 09:21:25;;;;;;;0.30;0.30;;;17.00;72.30;;;;;;5054840;28;20531;-76
2023/05/18 09:23:51;;;;;;;0.30;0.30;;;16.70;75.30;;;;;;5073085;28;20305;-76
2023/05/18 09:26:19;;;;;;;0.30;0.30;;;17.10;80.10;;;;;;5073078;28;20678;-77
2023/05/18 09:28:46;;;;;;;0.20;0.20;;;17.40;75.40;;;;;;5073255;28;20200;-77
2023/05/18 09:31:20;;;;;;;6.53;0.63;;;17.80;74.10;;;;;;5072979;28;20189;-77
2023/05/18 09:33:47;;;;;;;0.30;0.30;;;17.90;75.00;;;;;;5072927;28;20199;-77
2023/05/18 09:36:16;;;;;;;0.30;0.30;;;17.30;74.50;;;;;;5054642;28;20195;-77
2023/05/18 09:38:46;;;;;;;0.30;0.30;;;17.70;77.00;;;;;;5054935;28;20283;-77
2023/05/18 09:41:15;;;;;;;0.20;0.20;;;18.00;77.20;;;;;;5072879;28;20188;-77
2023/05/18 09:43:45;;;;;;;0.20;0.20;;;18.10;75.90;;;;;;5072553;28;20207;-77
2023/05/18 09:46:12;;;;;;;0.30;0.30;;;18.00;80.50;;;;;;5072921;28;20181;-77
2023/05/18 09:48:51;;;;;;;0.30;0.30;;;17.90;71.40;;;;;;5072827;28;20755;-77
2023/05/18 09:51:18;;;;;;;0.22;0.22;;;17.90;74.10;;;;;;5073445;28;20557;-77
2023/05/18 09:53:54;;;;;;;0.20;0.20;;;17.90;74.10;;;;;;5072687;28;20193;-77
2023/05/18 09:56:25;;;;;;;0.20;0.20;;;18.50;73.00;;;;;;5054599;28;20283;-76
2023/05/18 09:58:52;;;;;;;0.25;0.25;;;18.70;70.60;;;;;;5072226;28;20256;-77
2023/05/18 10:01:18;;;;;;;0.40;0.40;;;18.40;72.50;;;;;;5072272;28;20287;-77
2023/05/18 10:03:47;;;;;;;0.30;0.30;;;18.40;71.10;;;;;;5072178;28;20225;-77
2023/05/18 10:06:13;;;;;;;0.30;0.30;;;18.70;73.50;;;;;;5072498;28;20532;-78
2023/05/18 10:08:40;;;;;;;6.18;0.68;;;17.90;73.10;;;;;;5072393;28;20665;-77
2023/05/18 10:11:06;;;;;;;0.20;0.20;;;18.40;73.00;;;;;;5072558;28;20286;-78
2023/05/18 10:13:33;;;;;;;0.20;0.20;;;19.00;69.30;;;;;;5072309;28;20279;-78
2023/05/18 10:16:01;;;;;;;0.20;0.20;;;19.50;70.70;;;;;;5072686;28;20544;-79
2023/05/18 10:18:29;;;;;;;1.05;0.35;;;19.60;69.70;;;;;;5055940;28;20205;-77
2023/05/18 10:20:58;;;;;;;0.30;0.30;;;19.80;70.80;;;;;;5076701;28;20192;-77
2023/05/18 10:23:25;;;;;;;0.20;0.20;;;19.60;66.00;;;;;;5076100;28;20205;-78
2023/05/18 10:25:52;;;;;;;0.20;0.20;;;19.40;68.00;;;;;;5076237;28;20189;-78
2023/05/18 10:28:31;;;;;;;0.20;0.20;;;19.50;71.30;;;;;;5076329;28;20189;-76
2023/05/18 10:30:59;;;;;;;0.20;0.20;;;19.90;67.40;;;;;;5040120;28;20292;-78
2023/05/18 10:33:29;;;;;;;0.57;0.40;;;20.00;72.10;;;;;;5067443;28;20197;-77
2023/05/18 10:35:55;;;;;;;0.20;0.20;;;19.70;66.00;;;;;;5076259;28;20695;-78
2023/05/18 10:38:24;;;;;;;0.20;0.20;;;20.00;72.80;;;;;;5076086;28;20263;-78
2023/05/18 10:40:59;;;;;;;0.25;0.25;;;20.00;63.70;;;;;;5076162;28;20278;-79
2023/05/18 10:43:26;;;;;;;0.35;0.35;;;20.00;68.00;;;;;;5057527;28;20216;-78
2023/05/18 10:45:59;;;;;;;0.30;0.30;;;20.20;67.30;;;;;;5076012;28;20298;-77
2023/05/18 10:48:26;;;;;;;0.20;0.20;;;20.20;68.80;;;;;;5076286;28;20192;-77
2023/05/18 10:50:53;;;;;;;0.20;0.20;;;20.70;63.90;;;;;;5058031;28;20659;-79
2023/05/18 10:53:22;;;;;;;1.33;0.90;;;21.00;67.10;;;;;;5075197;28;20283;-75
2023/05/18 10:55:48;;;;;;;1.20;0.38;;;20.40;59.70;;;;;;5057894;28;20197;-78
2023/05/18 10:58:19;;;;;;;0.20;0.20;;;20.20;62.30;;;;;;5075909;28;20205;-78
2023/05/18 11:00:51;;;;;;;0.20;0.20;;;19.70;62.70;;;;;;5075669;28;20193;-77
2023/05/18 11:03:18;;;;;;;0.25;0.25;;;19.60;64.60;;;;;;5074195;28;20247;-78
2023/05/18 11:05:51;;;;;;;0.20;0.20;;;20.10;63.80;;;;;;5075580;28;20239;-80
2023/05/18 11:08:26;;;;;;;0.90;0.40;;;20.80;63.80;;;;;;5075551;28;20196;-78
2023/05/18 11:11:03;;;;;;;0.30;0.30;;;20.80;66.20;;;;;;5075899;28;20655;-79
2023/05/18 11:13:30;;;;;;;0.30;0.30;;;20.50;63.20;;;;;;5075281;28;20196;-79
2023/05/18 11:15:57;;;;;;;0.20;0.20;;;20.60;65.80;;;;;;5075601;28;20274;-79
2023/05/18 11:19:03;;;;;;;0.25;0.25;;;20.80;63.10;;;;;;5057354;28;20197;-78
2023/05/18 11:21:51;;;;;;;0.30;0.30;;;20.50;63.20;;;;;;5035360;28;20296;-79
2023/05/18 11:24:17;;;;;;;0.30;0.30;;;21.10;63.10;;;;;;5074815;28;20217;-79
2023/05/18 11:27:10;;;;;;;0.22;0.22;;;21.40;65.30;;;;;;5075158;28;20536;-79
2023/05/18 11:29:40;;;;;;;0.30;0.30;;;21.70;60.70;;;;;;5061634;28;20251;-79
2023/05/18 11:32:23;;;;;;;0.20;0.20;;;21.30;62.70;;;;;;5056006;28;20264;-79
2023/05/18 11:34:51;;;;;;;0.32;0.32;;;21.40;63.60;;;;;;5058050;28;20198;-79
2023/05/18 11:37:34;;;;;;;0.20;0.20;;;20.90;61.40;;;;;;5055837;28;20726;-79
2023/05/18 11:40:00;;;;;;;0.50;0.50;;;20.60;62.50;;;;;;5036725;28;20668;-78
2023/05/18 11:42:33;;;;;;;0.20;0.20;;;20.80;62.40;;;;;;5037045;28;20201;-79
2023/05/18 11:45:08;;;;;;;0.20;0.20;;;21.40;62.60;;;;;;5069050;28;20204;-79
2023/05/18 11:47:41;;;;;;;0.20;0.20;;;21.60;60.80;;;;;;5074706;28;20679;-78
2023/05/18 11:50:08;;;;;;;0.30;0.30;;;21.60;62.50;;;;;;5074733;28;20267;-78
2023/05/18 11:52:46;;;;;;;0.20;0.20;;;21.30;64.50;;;;;;5073596;28;20199;-79
2023/05/18 11:55:17;;;;;;;0.30;0.30;;;21.30;64.90;;;;;;5074681;28;20188;-78
2023/05/18 11:57:44;;;;;;;0.43;0.43;;;21.10;68.20;;;;;;5075021;28;20639;-78
2023/05/18 12:00:10;;;;;;;0.55;0.45;;;21.00;67.50;;;;;;5056680;28;20193;-78
2023/05/18 12:02:37;;;;;;;0.20;0.20;;;20.20;65.60;;;;;;5074329;28;20193;-78
2023/05/18 12:05:08;;;;;;;0.30;0.30;;;20.10;66.10;;;;;;5074089;28;20277;-79
2023/05/18 12:07:35;;;;;;;0.38;0.38;;;20.30;66.80;;;;;;5074390;28;20608;-80
2023/05/18 12:10:03;;;;;;;0.30;0.30;;;20.50;66.20;;;;;;5074945;28;20200;-78
2023/05/18 12:12:29;;;;;;;0.60;0.50;;;19.90;67.10;;;;;;5074418;28;20652;-78
2023/05/18 12:14:57;;;;;;;0.20;0.20;;;19.90;69.50;;;;;;5074779;28;20185;-78
2023/05/18 12:17:28;;;;;;;2.38;0.68;;;19.90;68.90;;;;;;5074301;28;20206;-78
2023/05/18 12:19:53;;;;;;;0.20;0.20;;;19.80;69.20;;;;;;5074516;28;20201;-78
2023/05/18 12:22:20;;;;;;;1.48;0.82;;;20.20;71.10;;;;;;5074093;28;20199;-78
2023/05/18 12:24:45;;;;;;;0.20;0.20;;;20.30;65.30;;;;;;5073986;28;20196;-79
2023/05/18 12:27:11;;;;;;;4.57;0.50;;;19.90;65.60;;;;;;5074074;28;20197;-79
2023/05/18 12:29:41;;;;;;;1.58;0.45;;;20.10;69.40;;;;;;5073878;28;20192;-79
2023/05/18 12:32:09;;;;;;;0.20;0.20;;;19.90;66.80;;;;;;5074391;28;20550;-79
2023/05/18 12:34:35;;;;;;;0.30;0.30;;;20.00;70.30;;;;;;5073186;28;20192;-78
2023/05/18 12:37:07;;;;;;;0.47;0.28;;;20.50;70.20;;;;;;5055599;28;20228;-79
2023/05/18 12:39:34;;;;;;;0.20;0.20;;;21.00;71.30;;;;;;5073920;28;20626;-79
2023/05/18 12:42:10;;;;;;;0.38;0.38;;;20.40;70.40;;;;;;5073939;28;20189;-79
2023/05/18 12:44:36;;;;;;;0.20;0.20;;;20.30;70.40;;;;;;5073684;28;20662;-78
2023/05/18 12:47:02;;;;;;;0.20;0.20;;;20.30;70.20;;;;;;5073964;28;20234;-78
2023/05/18 12:49:28;;;;;;;0.20;0.20;;;20.20;70.10;;;;;;5073587;28;20193;-78
2023/05/18 12:51:54;;;;;;;1.55;0.63;;;19.80;69.80;;;;;;5055642;28;20196;-79
2023/05/18 12:54:29;;;;;;;0.20;0.20;;;19.50;68.60;;;;;;5073541;28;20284;-78
2023/05/18 12:56:59;;;;;;;0.20;0.20;;;19.70;73.50;;;;;;5055705;28;20196;-79